createdAt,value
2022-09-15T00:00:52.216Z,88.55
2022-09-15T00:02:56.094Z,89.06
2022-09-15T00:04:59.468Z,89.11
2022-09-15T00:07:03.405Z,89.21
2022-09-15T00:09:06.925Z,89.12
2022-09-15T00:11:12.164Z,89.61
2022-09-15T00:13:17.204Z,89.45
2022-09-15T00:15:20.899Z,89.43
2022-09-15T00:17:24.259Z,89.09
2022-09-15T00:19:27.658Z,88.42
2022-09-15T00:21:33.414Z,88.38
2022-09-15T00:23:37.429Z,88.69
2022-09-15T00:25:45.889Z,88.97
2022-09-15T00:27:49.557Z,88.89
2022-09-15T00:29:54.180Z,88.64
2022-09-15T00:31:57.486Z,89.00
2022-09-15T00:34:03.791Z,88.96
2022-09-15T00:36:09.112Z,88.34
2022-09-15T00:38:14.016Z,88.51
2022-09-15T00:40:17.497Z,88.79
2022-09-15T00:42:22.905Z,88.09
2022-09-15T00:44:54.963Z,88.83
2022-09-15T00:47:18.339Z,88.79
2022-09-15T00:49:26.296Z,88.26
2022-09-15T00:51:38.004Z,88.25
2022-09-15T00:53:42.201Z,88.16
2022-09-15T00:55:47.490Z,88.13
2022-09-15T00:57:54.892Z,87.99
2022-09-15T01:00:00.832Z,87.79
2022-09-15T01:02:12.022Z,88.66
2022-09-15T01:04:16.775Z,88.76
2022-09-15T01:06:25.399Z,88.39
2022-09-15T01:08:34.085Z,88.42
2022-09-15T01:10:39.722Z,88.25
2022-09-15T01:12:43.213Z,88.39
2022-09-15T01:14:46.503Z,88.49
2022-09-15T01:16:57.323Z,88.18
2022-09-15T01:19:33.411Z,88.02
2022-09-15T01:21:42.667Z,88.47
2022-09-15T01:24:30.603Z,88.24
2022-09-15T01:26:59.464Z,88.27
2022-09-15T01:29:37.923Z,88.56
2022-09-15T01:32:00.991Z,88.67
2022-09-15T01:34:08.863Z,88.38
2022-09-15T01:36:15.637Z,87.89
2022-09-15T01:38:29.010Z,88.29
2022-09-15T01:40:37.118Z,88.23
2022-09-15T01:42:43.353Z,88.24
2022-09-15T01:44:53.060Z,88.35
2022-09-15T01:47:01.495Z,87.92
2022-09-15T01:49:07.844Z,87.79
2022-09-15T01:51:11.897Z,87.66
2022-09-15T01:53:18.791Z,88.32
2022-09-15T01:55:26.463Z,89.20
2022-09-15T01:57:30.174Z,89.90
2022-09-15T01:59:35.371Z,90.32
2022-09-15T02:01:45.272Z,90.16
2022-09-15T02:03:55.533Z,89.76
2022-09-15T02:06:03.308Z,89.40
2022-09-15T02:08:15.066Z,89.40
2022-09-15T02:10:25.839Z,89.56
2022-09-15T02:12:35.871Z,89.23
2022-09-15T02:14:49.150Z,88.91
2022-09-15T02:16:55.160Z,89.08
2022-09-15T02:19:08.845Z,89.29
2022-09-15T02:21:18.129Z,89.18
2022-09-15T02:23:26.855Z,89.26
2022-09-15T02:25:34.741Z,89.64
2022-09-15T02:27:44.241Z,89.38
2022-09-15T02:29:49.639Z,89.11
2022-09-15T02:31:57.428Z,89.47
2022-09-15T02:34:07.019Z,89.27
2022-09-15T02:36:14.481Z,89.09
2022-09-15T02:38:18.126Z,88.70
2022-09-15T02:40:22.951Z,88.91
2022-09-15T02:42:27.670Z,88.33
2022-09-15T02:44:31.797Z,88.99
2022-09-15T02:46:35.159Z,88.72
2022-09-15T02:48:39.935Z,88.60
2022-09-15T02:50:43.209Z,89.06
2022-09-15T02:52:46.595Z,88.60
2022-09-15T02:54:50.371Z,88.69
2022-09-15T02:56:53.885Z,88.55
2022-09-15T02:58:57.229Z,88.64
2022-09-15T03:01:02.816Z,88.63
2022-09-15T03:03:06.352Z,88.24
2022-09-15T03:05:12.727Z,88.19
2022-09-15T03:07:16.297Z,87.90
2022-09-15T03:09:19.613Z,87.71
2022-09-15T03:11:24.996Z,87.71
2022-09-15T03:13:28.512Z,86.60
2022-09-15T03:15:31.968Z,87.36
2022-09-15T03:17:36.266Z,87.10
2022-09-15T03:19:39.737Z,86.52
2022-09-15T03:21:44.406Z,86.95
2022-09-15T03:23:48.057Z,87.19
2022-09-15T03:25:51.393Z,87.92
2022-09-15T03:27:54.680Z,88.44
2022-09-15T03:29:57.955Z,88.92
2022-09-15T03:32:01.292Z,89.51
2022-09-15T03:34:04.810Z,89.87
2022-09-15T03:36:08.944Z,88.59
2022-09-15T03:38:13.651Z,89.15
2022-09-15T03:40:17.486Z,89.09
2022-09-15T03:42:21.445Z,89.66
2022-09-15T03:44:25.010Z,90.35
2022-09-15T03:46:28.601Z,90.73
2022-09-15T03:48:34.696Z,92.12
2022-09-15T03:50:38.097Z,92.49
2022-09-15T03:52:41.417Z,91.54
2022-09-15T03:54:46.153Z,90.99
2022-09-15T03:56:50.281Z,89.57
2022-09-15T03:58:54.161Z,89.95
2022-09-15T04:00:57.511Z,90.21
2022-09-15T04:03:01.011Z,89.63
2022-09-15T04:05:04.522Z,90.03
2022-09-15T04:07:08.759Z,90.08
2022-09-15T04:09:12.325Z,89.71
2022-09-15T04:11:18.984Z,89.13
2022-09-15T04:13:26.655Z,89.29
2022-09-15T04:15:36.530Z,88.66
2022-09-15T04:17:40.007Z,89.23
2022-09-15T04:19:45.138Z,89.37
2022-09-15T04:21:48.598Z,89.59
2022-09-15T04:23:52.259Z,88.68
2022-09-15T04:25:57.022Z,89.30
2022-09-15T04:28:02.007Z,89.71
2022-09-15T04:30:06.447Z,88.86
2022-09-15T04:32:10.154Z,88.95
2022-09-15T04:34:13.539Z,89.31
2022-09-15T04:36:19.386Z,89.41
2022-09-15T04:38:22.979Z,89.11
2022-09-15T04:40:26.372Z,89.06
2022-09-15T04:42:31.056Z,89.82
2022-09-15T04:44:35.867Z,90.50
2022-09-15T04:46:39.414Z,91.78
2022-09-15T04:48:43.996Z,90.76
2022-09-15T04:50:50.251Z,91.24
2022-09-15T04:52:53.556Z,91.79
2022-09-15T04:54:57.312Z,92.15
2022-09-15T04:57:00.612Z,92.92
2022-09-15T04:59:04.453Z,93.29
2022-09-15T05:01:11.610Z,93.76
2022-09-15T05:03:15.350Z,93.26
2022-09-15T05:05:19.411Z,92.24
2022-09-15T05:07:22.835Z,92.27
2022-09-15T05:09:29.407Z,91.99
2022-09-15T05:11:32.894Z,91.41
2022-09-15T05:13:37.322Z,90.90
2022-09-15T05:15:40.652Z,90.73
2022-09-15T05:17:45.392Z,90.62
2022-09-15T05:19:48.767Z,90.34
2022-09-15T05:21:52.134Z,90.92
2022-09-15T05:23:56.092Z,90.64
2022-09-15T05:26:01.144Z,90.16
2022-09-15T05:28:04.472Z,90.27
2022-09-15T05:30:37.675Z,89.91
2022-09-15T05:32:32.325Z,90.31
2022-09-15T05:34:37.008Z,90.35
2022-09-15T05:36:40.445Z,90.29
2022-09-15T05:38:44.347Z,90.85
2022-09-15T05:40:48.046Z,91.51
2022-09-15T05:42:51.462Z,90.71
2022-09-15T05:44:54.796Z,90.89
2022-09-15T05:46:58.273Z,90.69
2022-09-15T05:49:01.757Z,90.58
2022-09-15T05:51:07.182Z,89.90
2022-09-15T05:53:10.525Z,90.47
2022-09-15T05:55:16.966Z,90.31
2022-09-15T05:57:20.294Z,89.92
2022-09-15T05:59:23.582Z,89.68
2022-09-15T06:01:28.728Z,89.44
2022-09-15T06:03:32.496Z,89.01
2022-09-15T06:05:36.196Z,88.52
2022-09-15T06:07:40.928Z,89.22
2022-09-15T06:09:45.186Z,88.81
2022-09-15T06:11:48.492Z,89.01
2022-09-15T06:13:51.929Z,88.40
2022-09-15T06:15:55.970Z,88.36
2022-09-15T06:17:59.590Z,88.80
2022-09-15T06:20:06.093Z,89.50
2022-09-15T06:22:09.485Z,91.58
2022-09-15T06:24:14.577Z,87.62
2022-09-15T06:26:19.361Z,88.26
2022-09-15T06:28:24.483Z,85.24
2022-09-15T06:30:27.840Z,85.35
2022-09-15T06:32:31.232Z,85.70
2022-09-15T06:34:34.612Z,85.88
2022-09-15T06:36:39.114Z,86.75
2022-09-15T06:38:43.154Z,86.72
2022-09-15T06:40:57.180Z,86.67
2022-09-15T06:43:01.470Z,85.95
2022-09-15T06:45:05.410Z,86.98
2022-09-15T06:47:10.490Z,86.44
2022-09-15T06:49:14.037Z,86.69
2022-09-15T06:51:20.621Z,87.02
2022-09-15T06:53:24.008Z,86.99
2022-09-15T06:55:28.336Z,87.48
2022-09-15T06:57:33.059Z,86.77
2022-09-15T06:59:36.398Z,86.98
2022-09-15T07:01:39.751Z,86.91
2022-09-15T07:03:44.898Z,86.76
2022-09-15T07:05:48.450Z,86.39
2022-09-15T07:07:51.793Z,86.47
2022-09-15T07:09:55.669Z,86.76
2022-09-15T07:11:58.994Z,86.61
2022-09-15T07:14:03.842Z,86.28
2022-09-15T07:16:12.180Z,86.73
2022-09-15T07:18:15.685Z,87.24
2022-09-15T07:20:18.984Z,87.61
2022-09-15T07:22:22.322Z,87.28
2022-09-15T07:24:25.723Z,86.62
2022-09-15T07:26:30.847Z,86.29
2022-09-15T07:28:34.298Z,86.40
2022-09-15T07:30:40.120Z,86.39
2022-09-15T07:32:43.453Z,85.82
2022-09-15T07:34:47.868Z,86.08
2022-09-15T07:36:51.183Z,86.00
2022-09-15T07:38:54.605Z,86.09
2022-09-15T07:41:04.490Z,85.21
2022-09-15T07:43:07.974Z,85.57
2022-09-15T07:45:12.046Z,85.22
2022-09-15T07:47:17.614Z,85.28
2022-09-15T07:49:21.194Z,85.42
2022-09-15T07:51:25.088Z,85.22
2022-09-15T07:53:30.027Z,84.75
2022-09-15T07:55:33.949Z,84.74
2022-09-15T07:57:37.591Z,84.61
2022-09-15T07:59:41.457Z,84.93
2022-09-15T08:01:44.945Z,85.42
2022-09-15T08:03:51.824Z,85.16
2022-09-15T08:05:58.753Z,85.30
2022-09-15T08:08:02.290Z,85.16
2022-09-15T08:10:06.195Z,85.38
2022-09-15T08:12:09.958Z,85.79
2022-09-15T08:14:13.253Z,85.20
2022-09-15T08:16:19.056Z,85.69
2022-09-15T08:18:22.709Z,85.29
2022-09-15T08:20:27.549Z,85.21
2022-09-15T08:22:31.046Z,85.64
2022-09-15T08:24:34.426Z,84.92
2022-09-15T08:26:38.457Z,84.41
2022-09-15T08:28:42.102Z,84.00
2022-09-15T08:30:45.521Z,83.61
2022-09-15T08:32:49.366Z,83.89
2022-09-15T08:34:52.664Z,84.05
2022-09-15T08:36:57.382Z,84.02
2022-09-15T08:39:00.689Z,84.03
2022-09-15T08:41:07.527Z,83.64
2022-09-15T08:43:18.875Z,83.66
2022-09-15T08:45:25.963Z,83.07
2022-09-15T08:47:35.015Z,82.79
2022-09-15T08:49:52.526Z,83.08
2022-09-15T08:52:01.472Z,82.25
2022-09-15T08:54:11.201Z,82.41
2022-09-15T08:56:18.046Z,82.38
2022-09-15T08:58:24.597Z,81.59
2022-09-15T09:00:28.307Z,81.54
2022-09-15T09:02:47.869Z,81.17
2022-09-15T09:05:03.752Z,81.32
2022-09-15T09:07:19.663Z,81.21
2022-09-15T09:09:32.642Z,79.93
2022-09-15T09:11:48.307Z,80.13
2022-09-15T09:14:00.539Z,79.30
2022-09-15T09:16:26.533Z,79.95
2022-09-15T09:18:59.551Z,80.12
2022-09-15T09:21:10.408Z,80.30
2022-09-15T09:23:18.504Z,79.30
2022-09-15T09:25:27.732Z,79.33
2022-09-15T09:27:34.889Z,78.81
2022-09-15T09:29:43.382Z,77.32
2022-09-15T09:31:50.197Z,77.39
2022-09-15T09:34:00.187Z,77.18
2022-09-15T09:36:04.620Z,76.35
2022-09-15T09:38:10.027Z,75.87
2022-09-15T09:40:16.073Z,76.04
2022-09-15T09:42:20.642Z,76.28
2022-09-15T09:44:31.615Z,76.58
2022-09-15T09:46:35.287Z,76.84
2022-09-15T09:48:39.640Z,76.25
2022-09-15T09:50:44.209Z,76.14
2022-09-15T09:52:47.637Z,74.94
2022-09-15T09:55:01.361Z,74.84
2022-09-15T09:57:29.059Z,75.07
2022-09-15T09:59:35.536Z,74.67
2022-09-15T10:01:38.869Z,74.85
2022-09-15T10:03:43.785Z,73.17
2022-09-15T10:06:02.689Z,72.82
2022-09-15T10:08:06.122Z,72.32
2022-09-15T10:10:20.750Z,71.82
2022-09-15T10:12:30.740Z,72.52
2022-09-15T10:14:36.653Z,72.74
2022-09-15T10:16:40.078Z,71.46
2022-09-15T10:18:43.776Z,70.76
2022-09-15T10:20:50.748Z,71.47
2022-09-15T10:23:03.832Z,68.79
2022-09-15T10:25:55.221Z,68.43
2022-09-15T10:28:04.261Z,67.96
2022-09-15T10:30:18.524Z,67.57
2022-09-15T10:32:25.888Z,68.06
2022-09-15T10:34:31.583Z,68.73
2022-09-15T10:36:35.037Z,69.32
2022-09-15T10:38:43.087Z,69.28
2022-09-15T10:40:56.861Z,69.55
2022-09-15T10:43:10.502Z,69.64
2022-09-15T10:45:34.814Z,70.21
2022-09-15T10:47:49.900Z,69.83
2022-09-15T10:50:06.905Z,67.96
2022-09-15T10:52:20.548Z,67.24
2022-09-15T10:54:42.045Z,66.70
2022-09-15T10:56:50.132Z,66.35
2022-09-15T10:59:03.945Z,66.45
2022-09-15T11:01:25.032Z,65.90
2022-09-15T11:03:49.834Z,66.21
2022-09-15T11:06:04.014Z,66.06
2022-09-15T11:08:35.507Z,67.39
2022-09-15T11:10:46.931Z,68.35
2022-09-15T11:13:01.925Z,68.70
2022-09-15T11:15:18.727Z,69.38
2022-09-15T11:17:41.795Z,69.36
2022-09-15T11:20:02.799Z,69.96
2022-09-15T11:22:12.142Z,68.23
2022-09-15T11:24:28.304Z,68.49
2022-09-15T11:26:37.969Z,67.96
2022-09-15T11:28:50.764Z,67.87
2022-09-15T11:31:00.751Z,68.51
2022-09-15T11:33:12.339Z,68.15
2022-09-15T11:35:34.175Z,68.23
2022-09-15T11:37:42.080Z,67.88
2022-09-15T11:39:52.125Z,66.20
2022-09-15T11:42:02.155Z,64.66
2022-09-15T11:44:19.807Z,62.86
2022-09-15T11:46:31.020Z,63.05
2022-09-15T11:48:41.192Z,62.90
2022-09-15T11:50:47.451Z,63.14
2022-09-15T11:52:56.230Z,61.88
2022-09-15T11:55:06.150Z,60.86
2022-09-15T11:57:19.240Z,60.30
2022-09-15T11:59:31.608Z,59.42
2022-09-15T12:01:41.181Z,59.83
2022-09-15T12:03:52.745Z,59.80
2022-09-15T12:05:59.552Z,59.25
2022-09-15T12:08:10.333Z,60.63
2022-09-15T12:10:18.959Z,61.45
2022-09-15T12:12:25.386Z,61.78
2022-09-15T12:14:36.764Z,62.19
2022-09-15T12:16:41.020Z,62.95
2022-09-15T12:18:52.710Z,63.03
2022-09-15T12:21:02.876Z,62.62
2022-09-15T12:23:16.591Z,62.86
2022-09-15T12:25:25.843Z,63.79
2022-09-15T12:27:29.595Z,62.76
2022-09-15T12:29:42.139Z,61.93
2022-09-15T12:31:47.056Z,61.22
2022-09-15T12:33:56.481Z,60.92
2022-09-15T12:36:34.042Z,60.78
2022-09-15T12:38:37.367Z,60.76
2022-09-15T12:40:41.737Z,61.17
2022-09-15T12:42:47.414Z,60.58
2022-09-15T12:44:55.701Z,60.99
2022-09-15T12:47:01.476Z,59.73
2022-09-15T12:49:05.404Z,60.08
2022-09-15T12:51:11.769Z,60.71
2022-09-15T12:53:22.043Z,61.44
2022-09-15T12:55:28.365Z,62.64
2022-09-15T12:57:36.281Z,63.17
2022-09-15T12:59:39.950Z,63.70
2022-09-15T13:01:51.171Z,63.77
2022-09-15T13:04:25.648Z,63.71
2022-09-15T13:06:30.117Z,63.25
2022-09-15T13:09:16.377Z,62.68
2022-09-15T13:11:25.427Z,62.66
2022-09-15T13:13:38.389Z,62.30
2022-09-15T13:15:46.769Z,62.52
2022-09-15T13:17:52.090Z,63.05
2022-09-15T13:19:59.695Z,63.40
2022-09-15T13:22:08.736Z,63.58
2022-09-15T13:24:20.356Z,63.41
2022-09-15T13:26:28.212Z,63.84
2022-09-15T13:28:32.362Z,64.44
2022-09-15T13:30:45.245Z,64.33
2022-09-15T13:32:59.209Z,64.36
2022-09-15T13:35:27.776Z,64.46
2022-09-15T13:40:39.377Z,64.54
2022-09-15T13:42:58.330Z,64.83
2022-09-15T13:45:17.670Z,64.94
2022-09-15T13:47:35.733Z,64.68
2022-09-15T13:50:05.318Z,64.47
2022-09-15T13:52:22.800Z,64.99
2022-09-15T13:54:26.245Z,65.68
2022-09-15T13:56:35.478Z,66.29
2022-09-15T13:59:12.978Z,66.93
2022-09-15T14:01:08.031Z,66.98
2022-09-15T14:03:16.267Z,66.76
2022-09-15T14:05:24.034Z,67.16
2022-09-15T14:07:27.824Z,67.55
2022-09-15T14:09:34.247Z,67.91
2022-09-15T14:11:39.548Z,67.93
2022-09-15T14:13:45.691Z,67.85
2022-09-15T14:16:04.229Z,67.95
2022-09-15T14:18:19.433Z,67.65
2022-09-15T14:20:27.661Z,67.54
2022-09-15T14:22:33.178Z,67.02
2022-09-15T14:24:41.452Z,66.42
2022-09-15T14:26:44.884Z,66.30
2022-09-15T14:28:53.548Z,66.77
2022-09-15T14:30:56.946Z,65.83
2022-09-15T14:33:02.441Z,65.65
2022-09-15T14:35:08.506Z,65.21
2022-09-15T14:37:20.787Z,66.27
2022-09-15T14:39:24.783Z,64.68
2022-09-15T14:41:33.065Z,64.38
2022-09-15T14:43:39.343Z,64.43
2022-09-15T14:45:55.772Z,63.93
2022-09-15T14:48:04.336Z,63.28
2022-09-15T14:50:09.918Z,63.34
2022-09-15T14:52:31.682Z,63.30
2022-09-15T14:54:38.861Z,63.10
2022-09-15T14:56:44.176Z,61.90
2022-09-15T14:58:51.928Z,61.60
2022-09-15T15:01:01.423Z,61.41
2022-09-15T15:03:20.254Z,61.38
2022-09-15T15:05:27.335Z,61.58
2022-09-15T15:07:36.208Z,61.85
2022-09-15T15:09:47.078Z,61.97
2022-09-15T15:11:57.752Z,61.61
2022-09-15T15:14:02.737Z,62.22
2022-09-15T15:16:08.979Z,62.15
2022-09-15T15:18:32.187Z,61.49
2022-09-15T15:20:35.805Z,62.04
2022-09-15T15:22:42.319Z,62.56
2022-09-15T15:24:49.175Z,63.27
2022-09-15T15:26:52.851Z,63.11
2022-09-15T15:28:56.258Z,63.61
2022-09-15T15:31:18.831Z,63.03
2022-09-15T15:33:27.140Z,62.58
2022-09-15T15:35:32.128Z,62.94
2022-09-15T15:37:36.103Z,63.03
2022-09-15T15:39:41.033Z,63.25
2022-09-15T15:41:44.569Z,63.01
2022-09-15T15:43:59.285Z,62.84
2022-09-15T15:46:04.924Z,63.45
2022-09-15T15:48:10.816Z,63.62
2022-09-15T15:50:15.958Z,63.83
2022-09-15T15:52:19.345Z,63.67
2022-09-15T15:54:23.078Z,63.21
2022-09-15T15:56:27.796Z,62.69
2022-09-15T15:58:31.387Z,61.53
2022-09-15T16:00:39.642Z,62.14
2022-09-15T16:02:43.627Z,61.59
2022-09-15T16:04:47.063Z,61.30
2022-09-15T16:06:51.726Z,60.86
2022-09-15T16:08:58.094Z,60.66
2022-09-15T16:11:03.642Z,60.30
2022-09-15T16:13:10.300Z,60.47
2022-09-15T16:15:16.869Z,59.99
2022-09-15T16:17:20.349Z,59.75
2022-09-15T16:19:23.757Z,60.00
2022-09-15T16:21:36.746Z,60.21
2022-09-15T16:23:40.384Z,59.94
2022-09-15T16:25:49.759Z,60.44
2022-09-15T16:27:53.213Z,59.63
2022-09-15T16:29:57.913Z,59.75
2022-09-15T16:32:01.306Z,59.82
2022-09-15T16:34:04.814Z,59.95
2022-09-15T16:36:12.964Z,60.40
2022-09-15T16:38:16.547Z,61.01
2022-09-15T16:40:19.889Z,61.27
2022-09-15T16:42:23.416Z,61.24
2022-09-15T16:44:27.224Z,61.19
2022-09-15T16:46:31.937Z,61.24
2022-09-15T16:48:35.522Z,61.61
2022-09-15T16:50:42.657Z,62.44
2022-09-15T16:52:50.426Z,62.70
2022-09-15T16:54:53.776Z,63.44
2022-09-15T16:56:57.186Z,63.07
2022-09-15T16:59:00.899Z,63.02
2022-09-15T17:01:04.965Z,63.56
2022-09-15T17:03:10.174Z,64.14
2022-09-15T17:05:18.167Z,64.23
2022-09-15T17:07:21.863Z,64.54
2022-09-15T17:09:25.402Z,64.76
2022-09-15T17:11:30.423Z,65.50
2022-09-15T17:13:35.350Z,65.64
2022-09-15T17:15:41.205Z,65.49
2022-09-15T17:17:45.327Z,65.60
2022-09-15T17:19:50.177Z,65.04
2022-09-15T17:21:53.748Z,65.23
2022-09-15T17:23:57.121Z,65.13
2022-09-15T17:26:04.143Z,65.32
2022-09-15T17:28:07.742Z,65.78
2022-09-15T17:30:13.671Z,66.08
2022-09-15T17:32:17.179Z,65.99
2022-09-15T17:34:20.661Z,66.53
2022-09-15T17:36:25.828Z,67.23
2022-09-15T17:38:29.340Z,67.40
2022-09-15T17:40:33.428Z,67.38
2022-09-15T17:42:36.849Z,67.55
2022-09-15T17:44:40.209Z,67.55
2022-09-15T17:46:43.748Z,68.34
2022-09-15T17:48:47.307Z,68.48
2022-09-15T17:50:51.480Z,68.32
2022-09-15T17:52:56.944Z,68.46
2022-09-15T17:55:02.153Z,68.35
2022-09-15T17:57:06.132Z,68.52
2022-09-15T17:59:13.058Z,68.42
2022-09-15T18:01:19.735Z,67.61
2022-09-15T18:03:27.616Z,67.25
2022-09-15T18:05:33.156Z,66.87
2022-09-15T18:07:36.840Z,66.35
2022-09-15T18:09:41.617Z,66.42
2022-09-15T18:11:45.147Z,66.28
2022-09-15T18:13:48.631Z,65.69
2022-09-15T18:15:52.567Z,65.40
2022-09-15T18:17:58.276Z,65.31
2022-09-15T18:20:01.919Z,65.33
2022-09-15T18:22:05.495Z,65.30
2022-09-15T18:24:10.578Z,65.03
2022-09-15T18:26:15.543Z,65.36
2022-09-15T18:28:20.148Z,64.66
2022-09-15T18:30:25.913Z,64.40
2022-09-15T18:32:29.654Z,63.88
2022-09-15T18:34:33.483Z,63.63
2022-09-15T18:36:37.092Z,63.67
2022-09-15T18:38:40.977Z,63.79
2022-09-15T18:40:49.098Z,63.81
2022-09-15T18:42:56.662Z,63.40
2022-09-15T18:45:00.558Z,63.25
2022-09-15T18:47:04.060Z,62.39
2022-09-15T18:49:09.437Z,62.80
2022-09-15T18:51:19.655Z,61.92
2022-09-15T18:53:27.982Z,60.99
2022-09-15T18:55:31.799Z,61.18
2022-09-15T18:57:35.530Z,61.14
2022-09-15T18:59:40.508Z,60.74
2022-09-15T19:01:44.086Z,60.75
2022-09-15T19:03:47.685Z,60.75
2022-09-15T19:05:51.384Z,60.55
2022-09-15T19:07:55.548Z,60.54
2022-09-15T19:09:59.150Z,60.48
2022-09-15T19:12:03.611Z,60.50
2022-09-15T19:14:07.907Z,60.67
2022-09-15T19:16:13.667Z,60.85
2022-09-15T19:18:17.453Z,60.63
2022-09-15T19:20:21.327Z,61.11
2022-09-15T19:22:24.924Z,61.47
2022-09-15T19:24:33.523Z,61.29
2022-09-15T19:26:37.312Z,61.74
2022-09-15T19:28:40.854Z,61.99
2022-09-15T19:30:44.651Z,62.71
2022-09-15T19:32:49.686Z,62.47
2022-09-15T19:34:53.260Z,62.82
2022-09-15T19:36:57.129Z,63.39
2022-09-15T19:39:03.130Z,63.13
2022-09-15T19:41:09.305Z,63.52
2022-09-15T19:43:12.794Z,63.70
2022-09-15T19:45:16.358Z,64.17
2022-09-15T19:47:20.131Z,64.09
2022-09-15T19:49:25.696Z,63.99
2022-09-15T19:51:29.171Z,67.20
2022-09-15T19:53:32.692Z,63.93
2022-09-15T19:55:36.247Z,63.65
2022-09-15T19:57:40.540Z,64.14
2022-09-15T19:59:44.744Z,65.24
2022-09-15T20:01:48.296Z,64.17
2022-09-15T20:03:54.464Z,64.23
2022-09-15T20:05:59.478Z,63.82
2022-09-15T20:08:03.751Z,64.31
2022-09-15T20:10:07.691Z,63.91
2022-09-15T20:12:11.281Z,63.99
2022-09-15T20:14:15.810Z,63.68
2022-09-15T20:16:21.236Z,64.35
2022-09-15T20:18:25.210Z,64.63
2022-09-15T20:20:28.702Z,64.50
2022-09-15T20:22:33.731Z,64.68
2022-09-15T20:24:37.189Z,65.18
2022-09-15T20:26:40.989Z,65.61
2022-09-15T20:28:45.281Z,65.41
2022-09-15T20:30:58.681Z,66.10
2022-09-15T20:33:02.298Z,66.30
2022-09-15T20:35:06.444Z,66.44
2022-09-15T20:37:10.080Z,66.97
2022-09-15T20:39:18.237Z,66.63
2022-09-15T20:41:24.912Z,66.61
2022-09-15T20:43:29.128Z,66.60
2022-09-15T20:45:36.995Z,66.73
2022-09-15T20:47:40.852Z,66.87
2022-09-15T20:49:44.403Z,66.77
2022-09-15T20:51:48.807Z,67.09
2022-09-15T20:53:55.397Z,67.02
2022-09-15T20:56:00.829Z,67.15
2022-09-15T20:58:04.427Z,67.45
2022-09-15T21:00:09.952Z,67.12
2022-09-15T21:02:13.623Z,67.57
2022-09-15T21:04:17.332Z,67.82
2022-09-15T21:06:22.951Z,67.98
2022-09-15T21:08:26.509Z,67.92
2022-09-15T21:10:30.599Z,68.40
2022-09-15T21:12:35.415Z,68.12
2022-09-15T21:14:38.878Z,67.96
2022-09-15T21:16:43.448Z,68.48
2022-09-15T21:18:47.472Z,68.33
2022-09-15T21:20:56.396Z,68.28
2022-09-15T21:23:00.048Z,68.06
2022-09-15T21:25:03.672Z,68.29
2022-09-15T21:27:24.663Z,68.50
2022-09-15T21:29:31.358Z,68.25
2022-09-15T21:31:34.911Z,68.58
2022-09-15T21:33:39.568Z,68.35
2022-09-15T21:35:43.125Z,68.40
2022-09-15T21:37:46.518Z,68.38
2022-09-15T21:39:50.269Z,68.61
2022-09-15T21:41:54.103Z,68.87
2022-09-15T21:43:58.979Z,68.33
2022-09-15T21:46:05.768Z,68.17
2022-09-15T21:48:09.555Z,68.89
2022-09-15T21:50:13.021Z,68.74
2022-09-15T21:52:17.006Z,68.77
2022-09-15T21:54:20.711Z,69.08
2022-09-15T21:56:24.882Z,69.04
2022-09-15T21:58:32.011Z,68.81
2022-09-15T22:00:40.161Z,68.99
2022-09-15T22:02:45.065Z,69.24
2022-09-15T22:04:48.683Z,69.18
2022-09-15T22:06:52.504Z,69.56
2022-09-15T22:08:56.758Z,69.33
2022-09-15T22:11:01.076Z,69.29
2022-09-15T22:13:05.531Z,69.40
2022-09-15T22:15:09.657Z,70.17
2022-09-15T22:17:13.968Z,69.85
2022-09-15T22:19:19.076Z,69.96
2022-09-15T22:21:24.587Z,69.90
2022-09-15T22:23:28.531Z,70.67
2022-09-15T22:25:33.685Z,71.44
2022-09-15T22:27:37.416Z,71.79
2022-09-15T22:29:40.904Z,71.10
2022-09-15T22:31:44.443Z,71.83
2022-09-15T22:33:48.923Z,71.37
2022-09-15T22:35:54.268Z,71.92
2022-09-15T22:37:57.814Z,71.99
2022-09-15T22:40:01.475Z,72.85
2022-09-15T22:42:05.212Z,72.52
2022-09-15T22:44:18.641Z,71.93
2022-09-15T22:46:22.360Z,72.03
2022-09-15T22:48:25.919Z,71.96
2022-09-15T22:50:29.352Z,72.12
2022-09-15T22:52:34.228Z,72.58
2022-09-15T22:54:37.827Z,72.97
2022-09-15T22:56:41.245Z,73.13
2022-09-15T22:58:45.228Z,73.19
2022-09-15T23:00:49.190Z,73.71
2022-09-15T23:02:53.023Z,73.71
2022-09-15T23:04:56.556Z,73.33
2022-09-15T23:07:00.278Z,73.53
2022-09-15T23:09:07.753Z,73.32
2022-09-15T23:11:13.809Z,73.59
2022-09-15T23:13:18.065Z,73.73
2022-09-15T23:15:21.784Z,73.81
2022-09-15T23:17:25.797Z,74.15
2022-09-15T23:19:29.302Z,74.45
2022-09-15T23:21:32.829Z,74.32
2022-09-15T23:23:37.609Z,74.73
2022-09-15T23:25:42.575Z,75.12
2022-09-15T23:27:46.725Z,74.98
2022-09-15T23:29:50.322Z,74.92
2022-09-15T23:31:54.029Z,74.51
2022-09-15T23:33:57.573Z,74.28
2022-09-15T23:36:01.902Z,74.41
2022-09-15T23:38:05.279Z,74.25
2022-09-15T23:40:09.592Z,74.89
2022-09-15T23:42:18.669Z,74.63
2022-09-15T23:44:22.520Z,74.68
2022-09-15T23:46:26.197Z,75.04
2022-09-15T23:48:31.568Z,74.83
2022-09-15T23:50:36.334Z,74.97
2022-09-15T23:52:39.745Z,75.32
2022-09-15T23:54:43.981Z,74.42
2022-09-15T23:56:47.476Z,74.38
2022-09-15T23:58:52.204Z,74.30
